Adrian, MO

4:44 PM CDT on September 18, 2014 (GMT -0500)
Nurse Laura | Change Station
CLOSE
Current Station
Personal Weather Station
Location: Adrian, MO
Elevation: 863 ft
Nearby Weather Stations

Elev 863 ft 38.40 °N, 94.35 °W | Updated 3 minutes ago

Overcast
Overcast
75.9 °F
Feels Like 77 °F
N
2.0
Wind Variable Wind from NE
Gusts 5.8 mph

Today
High -- | Low -- °F
--% Chance of Precip.
Yesterday
High -- | Low -- °F
Precip. -- in
7:01 AM 7:20 PM
Waning Crescent, 24% visible
Pressure 30.00 in
Visibility 9.0 miles
Clouds Mostly Cloudy 1800 ft
Overcast 2300 ft
Heat Index 77 °F
Dew Point 36 °F
Humidity 24%
Rainfall -999.00 in
Snow Depth Not available.
UV 1 out of 12
Pollen 4.50 out of 12
Air Quality Not available.
Flu Activity Not available.
METAR KGLY 182135Z AUTO 12006KT 9SM BKN018 OVC023 21/18 A3000 RMK AO2

More Conditions Fewer Conditions

Pressure 30.00 in
Visibility 9.0 miles
Clouds Mostly Cloudy 1800 ft
Overcast 2300 ft
Heat Index 77 °F
Dew Point 36 °F
Humidity 24%
Rainfall -999.00 in
Snow Depth Not available.
UV 1 out of 12
Pollen 4.50 out of 12
Air Quality Not available.
Flu Activity Not available.
METAR KGLY 182135Z AUTO 12006KT 9SM BKN018 OVC023 21/18 A3000 RMK AO2

More Conditions Fewer Conditions

10-Day Weather Forecast

Almanac

Astronomy

Sep. 18, 2014 Rise Set
Actual Time 7:01 AM CDT 7:20 PM CDT
Civil Twilight 6:35 AM CDT 7:47 PM CDT
Nautical Twilight 6:04 AM CDT 8:18 PM CDT
Astronomical Twilight 5:32 AM CDT 8:49 PM CDT
Moon 1:57 AM CDT 4:09 PM CDT
Length of Visible Light 13h 11m
Length of Day
12h 19m
Tomorrow will be 2m 28s shorter.
Waning Crescent, 24% of the Moon is Illuminated
Today
Waning Crescent
Sep 24
New
Oct 1
First Quarter
Oct 8
Full
Oct 15
Last Quarter

Today's Extremes

State Highs State Lows

Community

WunderPhotos

Upload Photos

1,754,452 photos uploaded!

WunderBlogs® & News

Nearby

Snow Depth

Station Depth Elevation
No new snow has been reported.

Earthquake Activity

City Distance Mag. Time & Date
No recent earthquake activity has been reported nearby.
Minimum magnitude displayed is 2.5.

Coastal Water Temperatures

Place Temperature
No Stations Reporting

Nearby Weather Stations